sensor_id;sensor_type;location;lat;lon;timestamp;pressure;altitude;pressure_sealevel;temperature;humidity
72096;BME280;59968;51.084;16.748;2023-04-24T00:01:22;99156.52;;;14.67;75.24
72096;BME280;59968;51.084;16.748;2023-04-24T00:03:51;99163.98;;;14.74;75.34
72096;BME280;59968;51.084;16.748;2023-04-24T00:06:22;99162.94;;;14.74;75.18
72096;BME280;59968;51.084;16.748;2023-04-24T00:08:52;99159.23;;;14.75;75.17
72096;BME280;59968;51.084;16.748;2023-04-24T00:11:20;99161.94;;;14.74;75.15
72096;BME280;59968;51.084;16.748;2023-04-24T00:13:49;99159.65;;;14.74;75.30
72096;BME280;59968;51.084;16.748;2023-04-24T00:16:18;99158.54;;;14.73;75.29
72096;BME280;59968;51.084;16.748;2023-04-24T00:18:46;99160.38;;;14.71;75.37
72096;BME280;59968;51.084;16.748;2023-04-24T00:21:16;99159.05;;;14.68;75.43
72096;BME280;59968;51.084;16.748;2023-04-24T00:23:45;99154.23;;;14.66;75.70
72096;BME280;59968;51.084;16.748;2023-04-24T00:26:14;99151.49;;;14.66;75.47
72096;BME280;59968;51.084;16.748;2023-04-24T00:28:43;99153.07;;;14.66;75.45
72096;BME280;59968;51.084;16.748;2023-04-24T00:31:12;99145.08;;;14.65;75.38
72096;BME280;59968;51.084;16.748;2023-04-24T00:33:40;99142.95;;;14.66;75.41
72096;BME280;59968;51.084;16.748;2023-04-24T00:36:10;99135.95;;;14.65;75.51
72096;BME280;59968;51.084;16.748;2023-04-24T00:38:38;99131.77;;;14.65;75.46
72096;BME280;59968;51.084;16.748;2023-04-24T00:41:06;99130.05;;;14.65;75.19
72096;BME280;59968;51.084;16.748;2023-04-24T00:43:36;99138.45;;;14.67;75.20
72096;BME280;59968;51.084;16.748;2023-04-24T00:46:14;99139.73;;;14.73;74.97
72096;BME280;59968;51.084;16.748;2023-04-24T00:48:43;99135.60;;;14.71;75.10
72096;BME280;59968;51.084;16.748;2023-04-24T00:51:12;99134.82;;;14.72;74.98
72096;BME280;59968;51.084;16.748;2023-04-24T00:53:41;99132.73;;;14.72;75.16
72096;BME280;59968;51.084;16.748;2023-04-24T00:56:10;99127.23;;;14.70;75.08
72096;BME280;59968;51.084;16.748;2023-04-24T00:58:39;99132.23;;;14.69;75.02
72096;BME280;59968;51.084;16.748;2023-04-24T01:01:09;99129.39;;;14.68;74.95
72096;BME280;59968;51.084;16.748;2023-04-24T01:03:38;99131.09;;;14.66;74.87
72096;BME280;59968;51.084;16.748;2023-04-24T01:06:08;99132.51;;;14.67;74.92
72096;BME280;59968;51.084;16.748;2023-04-24T01:08:43;99133.45;;;14.65;74.87
72096;BME280;59968;51.084;16.748;2023-04-24T01:11:14;99132.27;;;14.64;74.74
72096;BME280;59968;51.084;16.748;2023-04-24T01:13:42;99127.04;;;14.63;74.73
72096;BME280;59968;51.084;16.748;2023-04-24T01:16:11;99126.11;;;14.63;74.76
72096;BME280;59968;51.084;16.748;2023-04-24T01:18:39;99120.34;;;14.61;74.64
72096;BME280;59968;51.084;16.748;2023-04-24T01:21:13;99121.05;;;14.64;74.57
72096;BME280;59968;51.084;16.748;2023-04-24T01:23:45;99126.32;;;14.64;74.54
72096;BME280;59968;51.084;16.748;2023-04-24T01:26:17;99120.15;;;14.63;74.56
72096;BME280;59968;51.084;16.748;2023-04-24T01:28:48;99116.84;;;14.61;74.45
72096;BME280;59968;51.084;16.748;2023-04-24T01:31:17;99116.42;;;14.61;74.56
72096;BME280;59968;51.084;16.748;2023-04-24T01:33:47;99115.27;;;14.60;74.43
72096;BME280;59968;51.084;16.748;2023-04-24T01:36:16;99114.51;;;14.58;74.37
72096;BME280;59968;51.084;16.748;2023-04-24T01:38:45;99114.46;;;14.58;74.22
72096;BME280;59968;51.084;16.748;2023-04-24T01:41:13;99111.15;;;14.57;74.18
72096;BME280;59968;51.084;16.748;2023-04-24T01:43:42;99106.97;;;14.56;74.18
72096;BME280;59968;51.084;16.748;2023-04-24T01:46:11;99103.67;;;14.55;74.28
72096;BME280;59968;51.084;16.748;2023-04-24T01:48:40;99104.55;;;14.55;74.01
72096;BME280;59968;51.084;16.748;2023-04-24T01:51:09;99101.48;;;14.55;74.27
72096;BME280;59968;51.084;16.748;2023-04-24T01:53:38;99099.31;;;14.53;74.01
72096;BME280;59968;51.084;16.748;2023-04-24T01:56:07;99090.48;;;14.53;74.06
72096;BME280;59968;51.084;16.748;2023-04-24T01:58:36;99092.37;;;14.53;74.01
72096;BME280;59968;51.084;16.748;2023-04-24T02:01:06;99083.75;;;14.51;74.08
72096;BME280;59968;51.084;16.748;2023-04-24T02:03:35;99083.13;;;14.52;74.21
72096;BME280;59968;51.084;16.748;2023-04-24T02:06:04;99077.65;;;14.51;74.18
72096;BME280;59968;51.084;16.748;2023-04-24T02:08:33;99077.86;;;14.51;74.16
72096;BME280;59968;51.084;16.748;2023-04-24T02:11:01;99073.44;;;14.51;74.24
72096;BME280;59968;51.084;16.748;2023-04-24T02:13:31;99070.73;;;14.50;74.04
72096;BME280;59968;51.084;16.748;2023-04-24T02:16:01;99074.91;;;14.50;74.20
72096;BME280;59968;51.084;16.748;2023-04-24T02:18:33;99072.19;;;14.48;74.01
72096;BME280;59968;51.084;16.748;2023-04-24T02:21:04;99070.76;;;14.46;74.08
72096;BME280;59968;51.084;16.748;2023-04-24T02:23:33;99068.13;;;14.46;74.11
72096;BME280;59968;51.084;16.748;2023-04-24T02:26:02;99065.66;;;14.45;74.01
72096;BME280;59968;51.084;16.748;2023-04-24T02:28:31;99060.71;;;14.44;74.04
72096;BME280;59968;51.084;16.748;2023-04-24T02:31:02;99060.13;;;14.44;74.03
72096;BME280;59968;51.084;16.748;2023-04-24T02:33:31;99057.54;;;14.45;74.05
72096;BME280;59968;51.084;16.748;2023-04-24T02:36:02;99054.30;;;14.45;73.87
72096;BME280;59968;51.084;16.748;2023-04-24T02:38:31;99050.17;;;14.44;74.05
72096;BME280;59968;51.084;16.748;2023-04-24T02:41:00;99047.36;;;14.41;73.98
72096;BME280;59968;51.084;16.748;2023-04-24T02:43:31;99039.59;;;14.32;74.13
72096;BME280;59968;51.084;16.748;2023-04-24T02:46:03;99039.55;;;14.33;74.23
72096;BME280;59968;51.084;16.748;2023-04-24T02:48:32;99041.68;;;14.33;74.08
72096;BME280;59968;51.084;16.748;2023-04-24T02:51:01;99046.40;;;14.34;74.06
72096;BME280;59968;51.084;16.748;2023-04-24T02:53:30;99043.40;;;14.33;74.18
72096;BME280;59968;51.084;16.748;2023-04-24T02:55:59;99044.51;;;14.33;73.84
72096;BME280;59968;51.084;16.748;2023-04-24T02:58:28;99041.89;;;14.32;73.82
72096;BME280;59968;51.084;16.748;2023-04-24T03:00:56;99042.45;;;14.31;73.71
72096;BME280;59968;51.084;16.748;2023-04-24T03:03:25;99042.02;;;14.29;73.84
72096;BME280;59968;51.084;16.748;2023-04-24T03:05:54;99037.63;;;14.27;73.77
72096;BME280;59968;51.084;16.748;2023-04-24T03:08:25;99037.02;;;14.25;73.80
72096;BME280;59968;51.084;16.748;2023-04-24T03:10:54;99032.50;;;14.26;73.74
72096;BME280;59968;51.084;16.748;2023-04-24T03:13:22;99037.33;;;14.28;73.62
72096;BME280;59968;51.084;16.748;2023-04-24T03:15:50;99044.27;;;14.28;73.51
72096;BME280;59968;51.084;16.748;2023-04-24T03:18:21;99046.98;;;14.28;73.63
72096;BME280;59968;51.084;16.748;2023-04-24T03:20:50;99043.85;;;14.24;73.56
72096;BME280;59968;51.084;16.748;2023-04-24T03:23:19;99045.66;;;14.24;73.32
72096;BME280;59968;51.084;16.748;2023-04-24T03:25:51;99048.34;;;14.20;73.39
72096;BME280;59968;51.084;16.748;2023-04-24T03:28:20;99047.09;;;14.16;73.48
72096;BME280;59968;51.084;16.748;2023-04-24T03:31:02;99046.86;;;14.11;73.40
72096;BME280;59968;51.084;16.748;2023-04-24T03:33:34;99047.08;;;14.06;73.52
72096;BME280;59968;51.084;16.748;2023-04-24T03:36:03;99045.29;;;14.02;73.66
72096;BME280;59968;51.084;16.748;2023-04-24T03:38:39;99043.63;;;13.98;73.53
72096;BME280;59968;51.084;16.748;2023-04-24T03:41:29;99044.51;;;13.98;73.45
72096;BME280;59968;51.084;16.748;2023-04-24T03:44:21;99044.61;;;14.01;73.49
72096;BME280;59968;51.084;16.748;2023-04-24T03:46:51;99044.21;;;14.03;73.39
72096;BME280;59968;51.084;16.748;2023-04-24T03:49:20;99039.07;;;14.05;73.18
72096;BME280;59968;51.084;16.748;2023-04-24T03:51:55;99039.08;;;14.06;72.39
72096;BME280;59968;51.084;16.748;2023-04-24T03:54:26;99038.33;;;14.03;72.39
72096;BME280;59968;51.084;16.748;2023-04-24T03:56:55;99045.88;;;14.10;72.35
72096;BME280;59968;51.084;16.748;2023-04-24T03:59:27;99028.60;;;14.01;72.19
72096;BME280;59968;51.084;16.748;2023-04-24T04:02:12;99042.80;;;14.14;71.80
72096;BME280;59968;51.084;16.748;2023-04-24T04:04:42;99045.63;;;14.12;71.79
72096;BME280;59968;51.084;16.748;2023-04-24T04:07:11;99041.16;;;14.13;71.38
72096;BME280;59968;51.084;16.748;2023-04-24T04:09:41;99038.87;;;14.13;71.24
72096;BME280;59968;51.084;16.748;2023-04-24T04:12:16;99040.69;;;14.17;71.09
72096;BME280;59968;51.084;16.748;2023-04-24T04:14:50;99027.92;;;14.10;71.15
72096;BME280;59968;51.084;16.748;2023-04-24T04:17:19;99039.17;;;14.22;71.22
72096;BME280;59968;51.084;16.748;2023-04-24T04:19:48;99039.23;;;14.21;71.02
72096;BME280;59968;51.084;16.748;2023-04-24T04:22:16;99040.52;;;14.24;71.14
72096;BME280;59968;51.084;16.748;2023-04-24T04:24:48;99043.91;;;14.24;70.84
72096;BME280;59968;51.084;16.748;2023-04-24T04:27:21;99043.40;;;14.26;70.90
72096;BME280;59968;51.084;16.748;2023-04-24T04:30:05;99042.51;;;14.32;70.49
72096;BME280;59968;51.084;16.748;2023-04-24T04:32:40;99045.08;;;14.42;70.58
72096;BME280;59968;51.084;16.748;2023-04-24T04:35:10;99048.42;;;14.47;70.38
72096;BME280;59968;51.084;16.748;2023-04-24T04:37:38;99044.55;;;14.54;69.85
72096;BME280;59968;51.084;16.748;2023-04-24T04:40:17;99043.70;;;14.73;69.63
72096;BME280;59968;51.084;16.748;2023-04-24T04:42:56;99042.02;;;14.88;69.05
72096;BME280;59968;51.084;16.748;2023-04-24T04:45:26;99040.27;;;15.02;68.71
72096;BME280;59968;51.084;16.748;2023-04-24T04:48:15;99039.27;;;15.14;68.44
72096;BME280;59968;51.084;16.748;2023-04-24T04:50:46;99039.98;;;15.25;68.47
72096;BME280;59968;51.084;16.748;2023-04-24T04:53:15;99043.02;;;15.36;68.09
72096;BME280;59968;51.084;16.748;2023-04-24T04:55:44;99046.02;;;15.41;68.03
72096;BME280;59968;51.084;16.748;2023-04-24T04:58:15;99046.19;;;15.47;67.95
72096;BME280;59968;51.084;16.748;2023-04-24T05:00:45;99045.95;;;15.58;67.70
72096;BME280;59968;51.084;16.748;2023-04-24T05:03:22;99042.45;;;15.65;67.63
72096;BME280;59968;51.084;16.748;2023-04-24T05:05:57;99045.57;;;15.70;67.61
72096;BME280;59968;51.084;16.748;2023-04-24T05:08:27;99046.98;;;15.77;67.43
72096;BME280;59968;51.084;16.748;2023-04-24T05:10:56;99051.48;;;15.90;67.33
72096;BME280;59968;51.084;16.748;2023-04-24T05:13:27;99051.34;;;16.02;66.89
72096;BME280;59968;51.084;16.748;2023-04-24T05:16:15;99053.29;;;16.16;66.62
72096;BME280;59968;51.084;16.748;2023-04-24T05:18:44;99054.35;;;16.27;66.00
72096;BME280;59968;51.084;16.748;2023-04-24T05:21:14;99056.48;;;16.39;65.78
72096;BME280;59968;51.084;16.748;2023-04-24T05:23:45;99053.30;;;16.52;65.40
72096;BME280;59968;51.084;16.748;2023-04-24T05:26:17;99059.67;;;16.60;65.01
72096;BME280;59968;51.084;16.748;2023-04-24T05:28:46;99060.77;;;16.62;65.08
72096;BME280;59968;51.084;16.748;2023-04-24T05:31:15;99063.05;;;16.67;65.19
72096;BME280;59968;51.084;16.748;2023-04-24T05:33:46;99059.29;;;16.77;65.45
72096;BME280;59968;51.084;16.748;2023-04-24T05:36:18;99055.65;;;16.89;65.16
72096;BME280;59968;51.084;16.748;2023-04-24T05:38:47;99056.02;;;16.94;64.06
72096;BME280;59968;51.084;16.748;2023-04-24T05:41:15;99055.88;;;16.98;63.65
72096;BME280;59968;51.084;16.748;2023-04-24T05:43:44;99060.58;;;17.01;63.53
72096;BME280;59968;51.084;16.748;2023-04-24T05:46:13;99062.32;;;16.95;63.28
72096;BME280;59968;51.084;16.748;2023-04-24T05:48:45;99067.42;;;16.92;63.32
72096;BME280;59968;51.084;16.748;2023-04-24T05:51:14;99071.05;;;16.93;63.48
72096;BME280;59968;51.084;16.748;2023-04-24T05:53:43;99072.36;;;16.93;63.53
72096;BME280;59968;51.084;16.748;2023-04-24T05:56:12;99076.30;;;16.94;63.82
72096;BME280;59968;51.084;16.748;2023-04-24T05:58:41;99077.45;;;16.94;63.88
72096;BME280;59968;51.084;16.748;2023-04-24T06:01:10;99078.66;;;17.00;63.77
72096;BME280;59968;51.084;16.748;2023-04-24T06:03:43;99085.53;;;16.99;63.77
72096;BME280;59968;51.084;16.748;2023-04-24T06:06:12;99083.95;;;16.96;63.63
72096;BME280;59968;51.084;16.748;2023-04-24T06:08:41;99090.22;;;16.93;63.68
72096;BME280;59968;51.084;16.748;2023-04-24T06:11:13;99092.21;;;16.90;64.14
72096;BME280;59968;51.084;16.748;2023-04-24T06:13:41;99092.92;;;16.84;64.60
72096;BME280;59968;51.084;16.748;2023-04-24T06:16:41;99090.71;;;16.80;65.22
72096;BME280;59968;51.084;16.748;2023-04-24T06:19:19;99092.14;;;16.81;65.04
72096;BME280;59968;51.084;16.748;2023-04-24T06:21:48;99095.73;;;16.83;64.88
72096;BME280;59968;51.084;16.748;2023-04-24T06:24:17;99097.69;;;16.83;65.03
72096;BME280;59968;51.084;16.748;2023-04-24T06:26:46;99098.89;;;16.84;65.17
72096;BME280;59968;51.084;16.748;2023-04-24T06:29:18;99101.09;;;16.85;65.29
72096;BME280;59968;51.084;16.748;2023-04-24T06:31:46;99100.52;;;16.86;65.49
72096;BME280;59968;51.084;16.748;2023-04-24T06:34:24;99104.10;;;16.86;65.46
72096;BME280;59968;51.084;16.748;2023-04-24T06:36:54;99107.30;;;16.89;65.38
72096;BME280;59968;51.084;16.748;2023-04-24T06:39:23;99108.49;;;16.87;65.20
72096;BME280;59968;51.084;16.748;2023-04-24T06:41:51;99111.85;;;16.89;65.32
72096;BME280;59968;51.084;16.748;2023-04-24T06:44:20;99109.13;;;16.89;65.79
72096;BME280;59968;51.084;16.748;2023-04-24T06:46:52;99112.64;;;16.90;65.99
72096;BME280;59968;51.084;16.748;2023-04-24T06:49:26;99114.27;;;16.92;66.01
72096;BME280;59968;51.084;16.748;2023-04-24T06:51:55;99115.67;;;16.92;65.99
72096;BME280;59968;51.084;16.748;2023-04-24T06:54:24;99112.17;;;16.93;66.06
72096;BME280;59968;51.084;16.748;2023-04-24T06:56:52;99103.33;;;16.93;65.89
72096;BME280;59968;51.084;16.748;2023-04-24T06:59:22;99105.35;;;16.92;66.11
72096;BME280;59968;51.084;16.748;2023-04-24T07:01:50;99106.98;;;16.92;66.23
72096;BME280;59968;51.084;16.748;2023-04-24T07:04:22;99103.58;;;16.90;65.93
72096;BME280;59968;51.084;16.748;2023-04-24T07:06:51;99102.62;;;16.89;65.63
72096;BME280;59968;51.084;16.748;2023-04-24T07:09:19;99102.52;;;16.82;65.47
72096;BME280;59968;51.084;16.748;2023-04-24T07:11:49;99107.30;;;16.73;65.67
72096;BME280;59968;51.084;16.748;2023-04-24T07:14:18;99105.02;;;16.68;65.92
72096;BME280;59968;51.084;16.748;2023-04-24T07:16:48;99109.44;;;16.67;66.29
72096;BME280;59968;51.084;16.748;2023-04-24T07:19:17;99108.86;;;16.69;66.70
72096;BME280;59968;51.084;16.748;2023-04-24T07:21:46;99106.20;;;16.72;67.16
72096;BME280;59968;51.084;16.748;2023-04-24T07:24:14;99109.46;;;16.79;67.46
72096;BME280;59968;51.084;16.748;2023-04-24T07:26:43;99113.46;;;16.83;67.34
72096;BME280;59968;51.084;16.748;2023-04-24T07:29:13;99109.74;;;16.87;67.76
72096;BME280;59968;51.084;16.748;2023-04-24T07:31:42;99111.38;;;16.90;67.55
72096;BME280;59968;51.084;16.748;2023-04-24T07:34:10;99109.67;;;16.92;67.78
72096;BME280;59968;51.084;16.748;2023-04-24T07:36:42;99109.14;;;16.95;67.44
72096;BME280;59968;51.084;16.748;2023-04-24T07:39:11;99105.95;;;16.95;67.73
72096;BME280;59968;51.084;16.748;2023-04-24T07:41:40;99108.83;;;17.01;67.70
72096;BME280;59968;51.084;16.748;2023-04-24T07:44:08;99111.30;;;17.04;67.55
72096;BME280;59968;51.084;16.748;2023-04-24T07:46:37;99111.31;;;17.06;67.88
72096;BME280;59968;51.084;16.748;2023-04-24T07:49:06;99109.08;;;17.12;67.71
72096;BME280;59968;51.084;16.748;2023-04-24T07:51:41;99108.08;;;17.18;67.34
72096;BME280;59968;51.084;16.748;2023-04-24T07:54:10;99086.42;;;17.10;67.36
72096;BME280;59968;51.084;16.748;2023-04-24T07:56:41;99103.69;;;17.31;67.14
72096;BME280;59968;51.084;16.748;2023-04-24T07:59:11;99105.31;;;17.42;67.22
72096;BME280;59968;51.084;16.748;2023-04-24T08:01:40;99104.55;;;17.51;66.74
72096;BME280;59968;51.084;16.748;2023-04-24T08:04:09;99107.98;;;17.57;66.33
72096;BME280;59968;51.084;16.748;2023-04-24T08:06:38;99106.88;;;17.61;66.46
72096;BME280;59968;51.084;16.748;2023-04-24T08:09:07;99104.04;;;17.65;66.55
72096;BME280;59968;51.084;16.748;2023-04-24T08:11:36;99108.70;;;17.69;65.75
72096;BME280;59968;51.084;16.748;2023-04-24T08:14:05;99106.70;;;17.75;65.81
72096;BME280;59968;51.084;16.748;2023-04-24T08:16:34;99105.91;;;17.81;65.71
72096;BME280;59968;51.084;16.748;2023-04-24T08:19:03;99108.11;;;17.87;66.31
72096;BME280;59968;51.084;16.748;2023-04-24T08:21:32;99106.46;;;17.94;65.91
72096;BME280;59968;51.084;16.748;2023-04-24T08:24:01;99111.48;;;18.01;65.31
72096;BME280;59968;51.084;16.748;2023-04-24T08:26:33;99112.33;;;18.05;64.43
72096;BME280;59968;51.084;16.748;2023-04-24T08:29:02;99114.84;;;18.09;64.09
72096;BME280;59968;51.084;16.748;2023-04-24T08:31:30;99101.15;;;18.03;63.79
72096;BME280;59968;51.084;16.748;2023-04-24T08:33:59;99115.22;;;18.21;64.16
72096;BME280;59968;51.084;16.748;2023-04-24T08:36:28;99113.30;;;18.32;64.00
72096;BME280;59968;51.084;16.748;2023-04-24T08:39:13;99114.69;;;18.37;63.41
72096;BME280;59968;51.084;16.748;2023-04-24T08:41:43;99115.99;;;18.42;63.52
72096;BME280;59968;51.084;16.748;2023-04-24T08:44:13;99114.30;;;18.46;63.34
72096;BME280;59968;51.084;16.748;2023-04-24T08:46:45;99116.78;;;18.48;63.18
72096;BME280;59968;51.084;16.748;2023-04-24T08:49:15;99115.73;;;18.51;63.16
72096;BME280;59968;51.084;16.748;2023-04-24T08:51:48;99118.65;;;18.56;63.40
72096;BME280;59968;51.084;16.748;2023-04-24T08:54:18;99126.31;;;18.58;63.47
72096;BME280;59968;51.084;16.748;2023-04-24T08:56:48;99127.27;;;18.57;63.76
72096;BME280;59968;51.084;16.748;2023-04-24T08:59:17;99127.98;;;18.58;63.26
72096;BME280;59968;51.084;16.748;2023-04-24T09:01:47;99128.61;;;18.57;63.07
72096;BME280;59968;51.084;16.748;2023-04-24T09:04:17;99125.11;;;18.54;63.14
72096;BME280;59968;51.084;16.748;2023-04-24T09:06:49;99129.95;;;18.53;63.38
72096;BME280;59968;51.084;16.748;2023-04-24T09:09:18;99132.53;;;18.51;63.16
72096;BME280;59968;51.084;16.748;2023-04-24T09:11:49;99128.76;;;18.49;63.17
72096;BME280;59968;51.084;16.748;2023-04-24T09:14:18;99123.77;;;18.47;63.15
72096;BME280;59968;51.084;16.748;2023-04-24T09:16:48;99121.60;;;18.47;63.23
72096;BME280;59968;51.084;16.748;2023-04-24T09:19:16;99120.93;;;18.47;63.57
72096;BME280;59968;51.084;16.748;2023-04-24T09:21:46;99110.59;;;18.46;63.45
72096;BME280;59968;51.084;16.748;2023-04-24T09:24:20;99118.27;;;18.56;63.49
72096;BME280;59968;51.084;16.748;2023-04-24T09:26:58;99116.80;;;18.60;63.03
72096;BME280;59968;51.084;16.748;2023-04-24T09:29:28;99111.68;;;18.64;62.65
72096;BME280;59968;51.084;16.748;2023-04-24T09:31:57;99106.14;;;18.69;62.83
72096;BME280;59968;51.084;16.748;2023-04-24T09:34:28;99103.69;;;18.74;63.19
72096;BME280;59968;51.084;16.748;2023-04-24T09:36:57;99099.50;;;18.83;62.85
72096;BME280;59968;51.084;16.748;2023-04-24T09:39:25;99100.41;;;18.90;63.36
72096;BME280;59968;51.084;16.748;2023-04-24T09:41:55;99103.83;;;19.00;63.17
72096;BME280;59968;51.084;16.748;2023-04-24T09:44:39;99109.19;;;19.06;62.78
72096;BME280;59968;51.084;16.748;2023-04-24T09:47:09;99117.71;;;19.07;62.70
72096;BME280;59968;51.084;16.748;2023-04-24T09:49:38;99115.77;;;19.06;62.92
72096;BME280;59968;51.084;16.748;2023-04-24T09:52:10;99111.52;;;19.03;62.17
72096;BME280;59968;51.084;16.748;2023-04-24T09:54:39;99110.29;;;18.91;61.97
72096;BME280;59968;51.084;16.748;2023-04-24T09:57:08;99110.64;;;18.83;61.99
72096;BME280;59968;51.084;16.748;2023-04-24T09:59:46;99109.98;;;18.76;61.93
72096;BME280;59968;51.084;16.748;2023-04-24T10:02:19;99109.36;;;18.67;62.58
72096;BME280;59968;51.084;16.748;2023-04-24T10:04:57;99106.39;;;18.60;62.81
72096;BME280;59968;51.084;16.748;2023-04-24T10:07:28;99103.41;;;18.56;63.10
72096;BME280;59968;51.084;16.748;2023-04-24T10:09:57;99097.23;;;18.52;63.12
72096;BME280;59968;51.084;16.748;2023-04-24T10:12:27;99096.40;;;18.51;63.22
72096;BME280;59968;51.084;16.748;2023-04-24T10:14:58;99098.39;;;18.52;63.61
72096;BME280;59968;51.084;16.748;2023-04-24T10:17:28;99095.70;;;18.56;63.82
72096;BME280;59968;51.084;16.748;2023-04-24T10:19:58;99096.74;;;18.58;64.00
72096;BME280;59968;51.084;16.748;2023-04-24T10:22:28;99100.05;;;18.57;64.23
72096;BME280;59968;51.084;16.748;2023-04-24T10:24:58;99101.23;;;18.52;64.21
72096;BME280;59968;51.084;16.748;2023-04-24T10:27:29;99107.18;;;18.42;63.81
72096;BME280;59968;51.084;16.748;2023-04-24T10:30:00;99107.17;;;18.28;63.88
72096;BME280;59968;51.084;16.748;2023-04-24T10:32:29;99111.02;;;18.17;64.03
72096;BME280;59968;51.084;16.748;2023-04-24T10:34:58;99110.96;;;18.03;64.54
72096;BME280;59968;51.084;16.748;2023-04-24T10:37:27;99110.19;;;17.89;65.10
72096;BME280;59968;51.084;16.748;2023-04-24T10:39:57;99103.39;;;17.78;65.47
72096;BME280;59968;51.084;16.748;2023-04-24T10:42:27;99109.80;;;17.69;65.87
72096;BME280;59968;51.084;16.748;2023-04-24T10:44:56;99110.11;;;17.61;66.34
72096;BME280;59968;51.084;16.748;2023-04-24T10:47:27;99109.96;;;17.56;66.44
72096;BME280;59968;51.084;16.748;2023-04-24T10:49:59;99108.38;;;17.51;66.49
72096;BME280;59968;51.084;16.748;2023-04-24T10:52:43;99108.21;;;17.44;66.50
72096;BME280;59968;51.084;16.748;2023-04-24T10:55:13;99104.96;;;17.42;66.38
72096;BME280;59968;51.084;16.748;2023-04-24T10:58:03;99112.23;;;17.39;66.53
72096;BME280;59968;51.084;16.748;2023-04-24T11:00:32;99109.73;;;17.36;66.57
72096;BME280;59968;51.084;16.748;2023-04-24T11:03:05;99113.60;;;17.31;66.92
72096;BME280;59968;51.084;16.748;2023-04-24T11:05:52;99113.91;;;17.30;67.13
72096;BME280;59968;51.084;16.748;2023-04-24T11:08:23;99111.50;;;17.27;67.42
72096;BME280;59968;51.084;16.748;2023-04-24T11:11:22;99112.85;;;17.27;67.71
72096;BME280;59968;51.084;16.748;2023-04-24T11:16:31;99116.33;;;17.29;67.92
72096;BME280;59968;51.084;16.748;2023-04-24T11:19:17;99116.11;;;17.29;67.92
72096;BME280;59968;51.084;16.748;2023-04-24T11:22:02;99118.95;;;17.29;67.92
72096;BME280;59968;51.084;16.748;2023-04-24T11:27:12;99122.04;;;17.29;67.80
72096;BME280;59968;51.084;16.748;2023-04-24T11:29:49;99110.97;;;17.21;67.72
72096;BME280;59968;51.084;16.748;2023-04-24T11:32:35;99120.92;;;17.27;67.64
72096;BME280;59968;51.084;16.748;2023-04-24T11:35:06;99120.61;;;17.26;67.34
72096;BME280;59968;51.084;16.748;2023-04-24T11:37:46;99118.88;;;17.24;67.40
72096;BME280;59968;51.084;16.748;2023-04-24T11:40:36;99118.72;;;17.18;67.77
72096;BME280;59968;51.084;16.748;2023-04-24T11:43:08;99117.81;;;17.12;68.25
72096;BME280;59968;51.084;16.748;2023-04-24T11:45:37;99114.70;;;17.03;68.75
72096;BME280;59968;51.084;16.748;2023-04-24T11:48:07;99120.45;;;16.96;69.11
72096;BME280;59968;51.084;16.748;2023-04-24T11:50:36;99125.40;;;16.85;69.68
72096;BME280;59968;51.084;16.748;2023-04-24T11:53:04;99124.02;;;16.77;69.93
72096;BME280;59968;51.084;16.748;2023-04-24T11:55:33;99119.25;;;16.72;70.14
72096;BME280;59968;51.084;16.748;2023-04-24T11:58:02;99122.11;;;16.70;70.62
72096;BME280;59968;51.084;16.748;2023-04-24T12:00:32;99123.38;;;16.70;71.65
72096;BME280;59968;51.084;16.748;2023-04-24T12:03:06;99126.30;;;16.71;72.25
72096;BME280;59968;51.084;16.748;2023-04-24T12:05:37;99125.48;;;16.73;72.38
72096;BME280;59968;51.084;16.748;2023-04-24T12:08:12;99127.36;;;16.76;71.47
72096;BME280;59968;51.084;16.748;2023-04-24T12:10:54;99126.55;;;16.82;71.26
72096;BME280;59968;51.084;16.748;2023-04-24T12:13:25;99132.39;;;16.86;70.81
72096;BME280;59968;51.084;16.748;2023-04-24T12:15:56;99134.55;;;16.82;64.59
72096;BME280;59968;51.084;16.748;2023-04-24T12:18:26;99130.81;;;16.71;61.26
72096;BME280;59968;51.084;16.748;2023-04-24T12:21:16;99127.27;;;16.62;61.54
72096;BME280;59968;51.084;16.748;2023-04-24T12:23:44;99128.89;;;16.53;62.19
72096;BME280;59968;51.084;16.748;2023-04-24T12:26:19;99125.96;;;16.46;62.64
72096;BME280;59968;51.084;16.748;2023-04-24T12:29:01;99127.96;;;16.38;62.18
72096;BME280;59968;51.084;16.748;2023-04-24T12:31:31;99127.77;;;16.32;61.29
72096;BME280;59968;51.084;16.748;2023-04-24T12:34:00;99130.16;;;16.26;59.95
72096;BME280;59968;51.084;16.748;2023-04-24T12:36:29;99131.14;;;16.15;60.38
72096;BME280;59968;51.084;16.748;2023-04-24T12:39:00;99121.57;;;16.06;61.02
72096;BME280;59968;51.084;16.748;2023-04-24T12:41:32;99126.61;;;15.94;61.75
72096;BME280;59968;51.084;16.748;2023-04-24T12:44:01;99120.10;;;15.76;61.97
72096;BME280;59968;51.084;16.748;2023-04-24T12:46:29;99122.54;;;15.59;61.84
72096;BME280;59968;51.084;16.748;2023-04-24T12:48:59;99122.57;;;15.44;62.21
72096;BME280;59968;51.084;16.748;2023-04-24T12:51:30;99118.37;;;15.32;62.80
72096;BME280;59968;51.084;16.748;2023-04-24T12:54:01;99120.09;;;15.21;63.44
72096;BME280;59968;51.084;16.748;2023-04-24T12:56:30;99119.05;;;15.06;64.22
72096;BME280;59968;51.084;16.748;2023-04-24T12:58:59;99116.39;;;14.95;65.19
72096;BME280;59968;51.084;16.748;2023-04-24T13:01:31;99115.09;;;14.86;65.67
72096;BME280;59968;51.084;16.748;2023-04-24T13:04:00;99107.50;;;14.84;66.01
72096;BME280;59968;51.084;16.748;2023-04-24T13:06:29;99093.59;;;14.77;65.77
72096;BME280;59968;51.084;16.748;2023-04-24T13:08:58;99103.90;;;14.80;66.11
72096;BME280;59968;51.084;16.748;2023-04-24T13:11:26;99103.91;;;14.76;66.36
72096;BME280;59968;51.084;16.748;2023-04-24T13:13:55;99104.88;;;14.73;65.66
72096;BME280;59968;51.084;16.748;2023-04-24T13:16:24;99102.04;;;14.71;65.76